Time;durP1;ratioP1;P1;durP2;ratioP2;P2;SDS_P1;SDS_P2;PMS_P1;PMS_P2;Temp;Humidity;BMP_temperature;BMP_pressure;BME280_temperature;BME280_humidity;BME280_pressure;Samples;Min_cycle;Max_cycle;Signal;HPM_P1;HPM_P2
2023/05/02 00:00:15;;;;;;;4.00;2.67;;;13.50;99.90;;;;;;7388507;19;20130;-76
2023/05/02 00:02:41;;;;;;;3.25;2.58;;;13.30;99.90;;;;;;7387618;19;20139;-76
2023/05/02 00:05:07;;;;;;;3.40;2.75;;;13.40;99.90;;;;;;7387414;19;20243;-76
2023/05/02 00:07:33;;;;;;;3.95;2.58;;;13.30;99.90;;;;;;7387236;19;20234;-77
2023/05/02 00:10:02;;;;;;;3.40;2.88;;;13.20;99.90;;;;;;7388103;19;20619;-77
2023/05/02 00:12:28;;;;;;;3.30;3.00;;;13.20;99.90;;;;;;7389183;19;20166;-76
2023/05/02 00:14:53;;;;;;;2.97;2.72;;;13.30;99.90;;;;;;7386780;19;20205;-77
2023/05/02 00:17:19;;;;;;;3.30;2.80;;;13.40;99.90;;;;;;7387319;19;20138;-76
2023/05/02 00:19:46;;;;;;;3.00;2.50;;;13.40;99.90;;;;;;7379606;19;20644;-77
2023/05/02 00:22:11;;;;;;;3.80;3.00;;;13.50;99.90;;;;;;7384178;19;20134;-77
2023/05/02 00:24:37;;;;;;;4.57;2.50;;;13.50;99.90;;;;;;7385636;19;20597;-77
2023/05/02 00:27:05;;;;;;;3.67;2.65;;;13.50;99.90;;;;;;7388322;19;20134;-77
2023/05/02 00:29:30;;;;;;;6.95;3.40;;;13.30;99.90;;;;;;7387397;19;20138;-76
2023/05/02 00:31:56;;;;;;;4.43;2.95;;;13.40;99.90;;;;;;7388588;19;20455;-75
2023/05/02 00:34:23;;;;;;;7.30;3.25;;;13.40;99.90;;;;;;7386321;19;20142;-75
2023/05/02 00:36:49;;;;;;;7.38;3.40;;;13.30;99.90;;;;;;7387981;19;20146;-76
2023/05/02 00:39:15;;;;;;;7.32;3.15;;;13.30;99.90;;;;;;7382021;19;20154;-76
2023/05/02 00:41:41;;;;;;;7.22;3.28;;;13.30;99.90;;;;;;7380425;19;20155;-75
2023/05/02 00:44:07;;;;;;;11.05;2.90;;;13.30;99.90;;;;;;7386647;19;20147;-76
2023/05/02 00:46:33;;;;;;;9.45;3.35;;;13.30;99.90;;;;;;7384969;19;20253;-77
2023/05/02 00:49:00;;;;;;;2.72;2.45;;;13.10;99.90;;;;;;7380980;19;20201;-75
2023/05/02 00:51:26;;;;;;;4.00;3.10;;;13.10;99.90;;;;;;7387311;19;20256;-76
2023/05/02 00:53:52;;;;;;;5.65;3.15;;;13.10;99.90;;;;;;7387255;19;20166;-76
2023/05/02 00:56:18;;;;;;;4.18;2.95;;;13.10;99.90;;;;;;7383744;19;20614;-75
2023/05/02 00:58:45;;;;;;;3.28;2.83;;;13.10;99.90;;;;;;7385424;19;20375;-76
2023/05/02 01:01:26;;;;;;;3.30;2.90;;;13.10;99.90;;;;;;7384938;19;20862;-78
2023/05/02 01:04:15;;;;;;;3.15;2.50;;;13.10;99.90;;;;;;7385311;19;20134;-79
2023/05/02 01:06:41;;;;;;;3.38;2.53;;;13.10;99.90;;;;;;7384599;19;20146;-78
2023/05/02 01:09:40;;;;;;;3.10;2.50;;;13.00;99.90;;;;;;7388006;19;20131;-77
2023/05/02 01:12:25;;;;;;;3.90;2.67;;;13.00;99.90;;;;;;7389985;19;20455;-78
2023/05/02 01:14:56;;;;;;;4.43;2.95;;;13.10;99.90;;;;;;7385889;19;20515;-78
2023/05/02 01:17:26;;;;;;;3.65;2.97;;;13.10;99.90;;;;;;7385577;19;20131;-78
2023/05/02 01:19:58;;;;;;;3.80;2.73;;;13.10;99.90;;;;;;7385682;19;20880;-78
2023/05/02 01:22:27;;;;;;;4.67;2.87;;;13.00;99.90;;;;;;7387713;19;20138;-77
2023/05/02 01:25:11;;;;;;;3.37;3.07;;;13.00;99.90;;;;;;7385405;19;20619;-78
2023/05/02 01:28:14;;;;;;;2.97;2.60;;;13.00;99.90;;;;;;7387220;19;20143;-77
2023/05/02 01:30:43;;;;;;;3.92;2.72;;;13.00;99.90;;;;;;7385934;19;20539;-78
2023/05/02 01:33:12;;;;;;;4.38;3.20;;;13.00;99.90;;;;;;7386548;19;20146;-78
2023/05/02 01:35:41;;;;;;;6.70;2.63;;;13.00;99.90;;;;;;7389783;19;20134;-78
2023/05/02 01:38:08;;;;;;;3.43;2.93;;;13.00;99.90;;;;;;7388129;19;20135;-77
2023/05/02 01:40:37;;;;;;;6.32;2.80;;;13.10;99.90;;;;;;7390071;19;20150;-77
2023/05/02 01:43:06;;;;;;;3.53;3.00;;;13.00;99.90;;;;;;7386776;19;20142;-77
2023/05/02 01:45:34;;;;;;;3.10;2.80;;;12.90;99.90;;;;;;7386587;19;20138;-78
2023/05/02 01:48:01;;;;;;;3.00;2.70;;;12.80;99.90;;;;;;7385623;19;20142;-77
2023/05/02 01:50:28;;;;;;;4.88;3.25;;;12.90;99.90;;;;;;7386350;19;20580;-77
2023/05/02 01:52:55;;;;;;;3.38;2.75;;;12.90;99.90;;;;;;7387762;19;20162;-78
2023/05/02 01:55:22;;;;;;;3.30;3.00;;;12.80;99.90;;;;;;7391126;19;20150;-78
2023/05/02 01:57:52;;;;;;;6.53;3.20;;;12.60;99.90;;;;;;7389776;19;20141;-78
2023/05/02 02:00:18;;;;;;;3.10;2.80;;;12.70;99.90;;;;;;7392046;19;20143;-77
2023/05/02 02:02:46;;;;;;;6.70;3.60;;;12.80;99.90;;;;;;7391218;19;20161;-78
2023/05/02 02:05:12;;;;;;;4.20;3.15;;;12.80;99.90;;;;;;7390525;19;20206;-77
2023/05/02 02:07:38;;;;;;;4.88;2.80;;;12.90;99.90;;;;;;7391705;19;20500;-78
2023/05/02 02:10:04;;;;;;;4.25;3.20;;;12.80;99.90;;;;;;7390920;19;20146;-78
2023/05/02 02:12:37;;;;;;;3.70;3.20;;;12.80;99.90;;;;;;7392552;19;20135;-78
2023/05/02 02:15:17;;;;;;;3.55;2.50;;;12.70;99.90;;;;;;7391763;19;20206;-77
2023/05/02 02:17:48;;;;;;;3.30;3.00;;;12.70;99.90;;;;;;7390326;19;20494;-78
2023/05/02 02:20:15;;;;;;;3.22;2.70;;;12.80;99.90;;;;;;7388375;19;20123;-77
2023/05/02 02:22:43;;;;;;;3.17;2.85;;;12.80;99.90;;;;;;7390363;19;20147;-78
2023/05/02 02:25:15;;;;;;;5.70;3.47;;;12.80;99.90;;;;;;7391164;19;20155;-77
2023/05/02 02:27:41;;;;;;;3.65;2.85;;;12.90;99.90;;;;;;7389700;19;20139;-77
2023/05/02 02:30:10;;;;;;;4.17;3.10;;;12.80;99.90;;;;;;7390655;19;20496;-77
2023/05/02 02:32:36;;;;;;;3.30;2.90;;;12.80;99.90;;;;;;7391122;19;20154;-76
2023/05/02 02:35:03;;;;;;;3.38;3.03;;;12.60;99.90;;;;;;7389816;19;21309;-77
2023/05/02 02:37:36;;;;;;;3.00;2.70;;;12.60;99.90;;;;;;7390599;19;20178;-78
2023/05/02 02:40:14;;;;;;;5.82;2.78;;;12.70;99.90;;;;;;7389471;19;20138;-77
2023/05/02 02:43:08;;;;;;;3.27;2.90;;;12.70;99.90;;;;;;7388640;19;20683;-78
2023/05/02 02:45:42;;;;;;;5.10;3.00;;;12.70;99.90;;;;;;7389975;19;20166;-78
2023/05/02 02:48:33;;;;;;;3.33;2.90;;;12.70;99.90;;;;;;7383598;19;20596;-78
2023/05/02 02:51:12;;;;;;;3.63;2.73;;;12.60;99.90;;;;;;7391537;19;20139;-78
2023/05/02 02:53:45;;;;;;;4.20;3.20;;;12.60;99.90;;;;;;7390714;19;20143;-78
2023/05/02 02:56:18;;;;;;;4.80;3.10;;;12.60;99.90;;;;;;7388898;19;20151;-77
2023/05/02 02:58:56;;;;;;;4.33;3.00;;;12.60;99.90;;;;;;7388014;19;20182;-77
2023/05/02 03:01:25;;;;;;;3.65;3.15;;;12.50;99.90;;;;;;7389709;19;20154;-77
2023/05/02 03:03:52;;;;;;;5.10;2.90;;;12.50;99.90;;;;;;7387272;19;20146;-77
2023/05/02 03:06:18;;;;;;;5.53;3.07;;;12.30;99.90;;;;;;7391273;19;20143;-77
2023/05/02 03:08:44;;;;;;;4.23;3.10;;;12.30;99.90;;;;;;7390072;19;20167;-77
2023/05/02 03:11:10;;;;;;;7.47;3.43;;;12.40;99.90;;;;;;7390312;19;20449;-77
2023/05/02 03:13:36;;;;;;;5.07;3.05;;;12.30;99.90;;;;;;7389099;19;20143;-77
2023/05/02 03:16:23;;;;;;;3.57;2.60;;;12.40;99.90;;;;;;7389714;19;20146;-77
2023/05/02 03:18:49;;;;;;;3.67;3.20;;;12.50;99.90;;;;;;7384146;19;20159;-77
2023/05/02 03:21:15;;;;;;;3.63;2.97;;;12.40;99.90;;;;;;7389412;19;20162;-77
2023/05/02 03:23:41;;;;;;;3.85;3.03;;;12.50;99.90;;;;;;7389135;19;20204;-77
2023/05/02 03:26:07;;;;;;;3.10;2.80;;;12.40;99.90;;;;;;7390565;19;20249;-76
2023/05/02 03:28:33;;;;;;;3.60;3.00;;;12.40;99.90;;;;;;7387856;19;20604;-78
2023/05/02 03:30:58;;;;;;;4.10;3.30;;;12.50;99.90;;;;;;7387404;19;20143;-76
2023/05/02 03:33:24;;;;;;;5.68;3.25;;;12.40;99.90;;;;;;7390007;19;20158;-78
2023/05/02 03:35:50;;;;;;;3.63;2.90;;;12.50;99.90;;;;;;7388971;19;20154;-77
2023/05/02 03:38:16;;;;;;;3.80;3.40;;;12.50;99.90;;;;;;7388010;19;20887;-77
2023/05/02 03:40:42;;;;;;;3.93;3.43;;;12.60;99.90;;;;;;7388568;19;20155;-77
2023/05/02 03:43:07;;;;;;;4.70;3.10;;;12.50;99.90;;;;;;7386812;19;20505;-77
2023/05/02 03:45:33;;;;;;;3.83;3.37;;;12.60;99.90;;;;;;7388047;19;20149;-77
2023/05/02 03:47:59;;;;;;;3.10;2.70;;;12.40;99.90;;;;;;7389981;19;20146;-77
2023/05/02 03:50:25;;;;;;;5.00;3.23;;;12.40;99.90;;;;;;7388935;19;20214;-78
2023/05/02 03:52:51;;;;;;;5.13;3.60;;;12.40;99.90;;;;;;7385238;19;20902;-77
2023/05/02 03:55:17;;;;;;;4.77;3.27;;;12.60;99.90;;;;;;7387803;19;20758;-78
2023/05/02 03:57:43;;;;;;;4.10;3.50;;;12.60;99.90;;;;;;7386107;19;20270;-78
2023/05/02 04:00:10;;;;;;;9.03;3.83;;;12.60;99.90;;;;;;7388478;19;20607;-78
2023/05/02 04:02:36;;;;;;;4.07;3.30;;;12.60;99.90;;;;;;7386596;19;21014;-79
2023/05/02 04:05:02;;;;;;;4.50;3.40;;;12.50;99.90;;;;;;7389628;19;20153;-79
2023/05/02 04:07:28;;;;;;;5.27;3.10;;;12.50;99.90;;;;;;7388476;19;20213;-78
2023/05/02 04:09:54;;;;;;;4.20;3.37;;;12.30;99.90;;;;;;7386653;19;20131;-78
2023/05/02 04:12:20;;;;;;;5.20;3.80;;;12.50;99.90;;;;;;7386879;19;20135;-77
2023/05/02 04:14:45;;;;;;;3.97;3.50;;;12.60;99.90;;;;;;7385898;19;20131;-78
2023/05/02 04:17:14;;;;;;;3.60;3.30;;;12.60;99.90;;;;;;7385413;19;20155;-77
2023/05/02 04:19:40;;;;;;;5.57;3.83;;;12.70;99.90;;;;;;7387902;19;20133;-78
2023/05/02 04:22:06;;;;;;;4.87;3.23;;;12.70;99.90;;;;;;7389679;19;20126;-78
2023/05/02 04:24:31;;;;;;;6.43;3.70;;;12.70;99.90;;;;;;7387537;19;20134;-78
2023/05/02 04:26:57;;;;;;;4.60;3.77;;;12.70;99.90;;;;;;7387992;19;20142;-78
2023/05/02 04:29:24;;;;;;;4.33;3.93;;;12.80;99.90;;;;;;7389256;19;20471;-77
2023/05/02 04:31:51;;;;;;;4.20;3.17;;;12.80;99.90;;;;;;7388612;19;20131;-78
2023/05/02 04:34:16;;;;;;;4.23;3.33;;;12.80;99.90;;;;;;7390012;19;20133;-78
2023/05/02 04:36:45;;;;;;;4.72;3.63;;;12.80;99.90;;;;;;7388652;19;20138;-77
2023/05/02 04:39:11;;;;;;;5.87;3.63;;;12.80;99.90;;;;;;7387016;19;20142;-77
2023/05/02 04:41:37;;;;;;;5.83;3.50;;;12.90;99.90;;;;;;7386510;19;20150;-78
2023/05/02 04:44:03;;;;;;;5.33;3.80;;;12.80;99.90;;;;;;7387917;19;20135;-77
2023/05/02 04:46:28;;;;;;;6.77;3.60;;;12.80;99.90;;;;;;7384067;19;20659;-77
2023/05/02 04:48:54;;;;;;;5.40;3.60;;;12.60;99.90;;;;;;7387671;19;20505;-77
2023/05/02 04:51:20;;;;;;;4.88;3.35;;;12.70;99.90;;;;;;7385725;19;20150;-76
2023/05/02 04:53:45;;;;;;;4.13;3.20;;;12.80;99.90;;;;;;7386124;19;20154;-78
2023/05/02 04:56:12;;;;;;;4.40;3.70;;;12.90;99.90;;;;;;7386683;19;20145;-78
2023/05/02 04:58:37;;;;;;;5.50;4.00;;;13.00;99.90;;;;;;7383425;19;20139;-78
2023/05/02 05:01:03;;;;;;;5.00;4.10;;;13.10;99.90;;;;;;7386028;19;20150;-78
2023/05/02 05:03:29;;;;;;;4.90;3.95;;;13.00;99.90;;;;;;7385668;19;20153;-76
2023/05/02 05:05:55;;;;;;;6.00;4.10;;;13.00;99.90;;;;;;7386705;19;20138;-78
2023/05/02 05:08:21;;;;;;;6.27;4.03;;;13.00;99.90;;;;;;7385591;19;20158;-78
2023/05/02 05:10:46;;;;;;;4.17;3.43;;;13.00;99.90;;;;;;7384961;19;20278;-77
2023/05/02 05:13:12;;;;;;;5.20;3.60;;;13.00;99.90;;;;;;7385865;19;20129;-77
2023/05/02 05:15:39;;;;;;;5.15;3.70;;;13.10;99.90;;;;;;7388552;19;20155;-77
2023/05/02 05:18:05;;;;;;;4.50;3.60;;;13.10;99.90;;;;;;7384448;19;20501;-77
2023/05/02 05:20:32;;;;;;;5.18;3.85;;;13.20;99.90;;;;;;7387963;19;20138;-76
2023/05/02 05:22:58;;;;;;;3.97;3.60;;;13.20;99.90;;;;;;7385358;19;20224;-78
2023/05/02 05:25:27;;;;;;;7.27;4.43;;;13.20;99.90;;;;;;7387492;19;20162;-77
2023/05/02 05:27:54;;;;;;;8.30;5.03;;;13.20;99.90;;;;;;7386142;19;20141;-78
2023/05/02 05:30:20;;;;;;;12.37;5.23;;;13.20;99.90;;;;;;7383746;19;20236;-77
2023/05/02 05:32:47;;;;;;;8.80;5.13;;;13.20;99.90;;;;;;7383011;19;20573;-78
2023/05/02 05:35:13;;;;;;;9.52;5.65;;;13.20;99.90;;;;;;7384149;19;20261;-77
2023/05/02 05:37:39;;;;;;;8.63;5.32;;;13.20;99.90;;;;;;7379897;19;20146;-76
2023/05/02 05:40:10;;;;;;;8.87;5.43;;;13.10;99.90;;;;;;7383883;19;20123;-76
2023/05/02 05:42:39;;;;;;;11.30;6.10;;;13.20;99.90;;;;;;7375749;19;20556;-77
2023/05/02 05:45:06;;;;;;;8.20;5.17;;;13.20;99.90;;;;;;7382379;19;20165;-78
2023/05/02 05:47:32;;;;;;;10.67;5.50;;;13.10;99.90;;;;;;7383906;19;20150;-80
2023/05/02 05:49:57;;;;;;;9.47;5.57;;;13.20;99.90;;;;;;7384634;19;20661;-79
2023/05/02 05:52:24;;;;;;;8.63;5.43;;;13.30;99.90;;;;;;7384732;19;20134;-79
2023/05/02 05:54:53;;;;;;;8.03;5.30;;;13.40;99.90;;;;;;7384148;19;20501;-79
2023/05/02 05:57:19;;;;;;;6.47;4.25;;;13.30;99.90;;;;;;7385746;19;20143;-79
2023/05/02 05:59:45;;;;;;;6.47;4.90;;;12.90;99.90;;;;;;7386204;19;20487;-79
2023/05/02 06:02:11;;;;;;;7.53;4.97;;;13.10;99.90;;;;;;7385563;19;20174;-81
2023/05/02 06:04:36;;;;;;;6.50;5.10;;;13.30;99.90;;;;;;7381446;19;20151;-80
2023/05/02 06:07:02;;;;;;;5.38;4.85;;;13.20;99.90;;;;;;7386641;19;20495;-82
2023/05/02 06:09:28;;;;;;;8.88;5.20;;;13.50;99.90;;;;;;7383828;19;20187;-82
2023/05/02 06:11:53;;;;;;;5.70;4.63;;;13.60;99.90;;;;;;7385219;19;20126;-80
2023/05/02 06:14:20;;;;;;;5.07;4.57;;;13.30;99.90;;;;;;7384699;19;20219;-81
2023/05/02 06:16:45;;;;;;;5.82;4.85;;;13.40;99.90;;;;;;7383632;19;20134;-81
2023/05/02 06:19:11;;;;;;;7.10;4.78;;;13.60;99.90;;;;;;7393625;19;20504;-82
2023/05/02 06:21:37;;;;;;;6.13;5.53;;;13.80;99.90;;;;;;7386424;19;20146;-80
2023/05/02 06:24:03;;;;;;;6.10;5.28;;;13.90;99.90;;;;;;7388162;19;20137;-80
2023/05/02 06:26:29;;;;;;;6.72;5.72;;;13.90;99.90;;;;;;7390575;19;20607;-81
2023/05/02 06:28:55;;;;;;;6.85;5.50;;;13.90;99.90;;;;;;7392582;19;20139;-81
2023/05/02 06:31:21;;;;;;;7.13;5.90;;;13.90;99.90;;;;;;7395349;19;20166;-80
2023/05/02 06:33:46;;;;;;;6.93;5.80;;;13.90;99.90;;;;;;7388116;19;20485;-82
2023/05/02 06:36:12;;;;;;;6.07;5.47;;;13.90;99.90;;;;;;7383407;19;20146;-80
2023/05/02 06:38:38;;;;;;;9.50;6.43;;;14.00;99.90;;;;;;7388321;19;20158;-79
2023/05/02 06:41:03;;;;;;;8.98;6.95;;;14.00;99.90;;;;;;7391632;19;20170;-80
2023/05/02 06:43:30;;;;;;;8.32;6.82;;;14.10;99.90;;;;;;7391684;19;20183;-79
2023/05/02 06:45:56;;;;;;;7.50;6.60;;;14.20;99.90;;;;;;7395144;19;20599;-81
2023/05/02 06:48:22;;;;;;;7.63;6.80;;;14.50;99.90;;;;;;7395523;19;20631;-81
2023/05/02 06:50:48;;;;;;;9.05;7.15;;;14.50;99.90;;;;;;7390539;19;20142;-80
2023/05/02 06:53:15;;;;;;;9.48;7.60;;;14.60;99.90;;;;;;7390234;19;20154;-81
2023/05/02 06:55:41;;;;;;;10.70;7.63;;;14.50;99.90;;;;;;7391246;19;20134;-82
2023/05/02 06:58:07;;;;;;;8.63;7.20;;;14.30;99.90;;;;;;7391568;19;20499;-81
2023/05/02 07:00:32;;;;;;;8.82;7.03;;;14.40;99.90;;;;;;7393137;19;20135;-82
2023/05/02 07:02:58;;;;;;;9.05;7.60;;;14.30;99.90;;;;;;7391400;19;20138;-82
2023/05/02 07:05:24;;;;;;;8.63;7.22;;;14.10;99.90;;;;;;7392350;19;20542;-82
2023/05/02 07:07:49;;;;;;;8.18;7.03;;;14.30;99.90;;;;;;7392378;19;20501;-81
2023/05/02 07:10:15;;;;;;;9.00;7.90;;;14.30;99.90;;;;;;7390545;19;20146;-81
2023/05/02 07:12:41;;;;;;;9.30;7.95;;;14.40;99.90;;;;;;7392711;19;20147;-81
2023/05/02 07:15:07;;;;;;;12.38;8.00;;;14.20;99.90;;;;;;7393074;19;20134;-81
2023/05/02 07:17:33;;;;;;;9.48;8.30;;;14.20;99.90;;;;;;7389319;19;20521;-81
2023/05/02 07:19:59;;;;;;;10.07;8.07;;;14.20;99.90;;;;;;7388433;19;20146;-82
2023/05/02 07:22:25;;;;;;;10.05;8.48;;;14.00;99.90;;;;;;7390150;19;20150;-82
2023/05/02 07:24:58;;;;;;;10.45;8.18;;;14.00;99.90;;;;;;7392037;19;20246;-81
2023/05/02 07:27:24;;;;;;;10.00;8.57;;;14.00;99.90;;;;;;7393511;19;20133;-81
2023/05/02 07:29:50;;;;;;;11.10;9.30;;;14.00;99.90;;;;;;7393378;19;20131;-83
2023/05/02 07:32:16;;;;;;;11.68;8.52;;;14.20;99.90;;;;;;7390485;19;20119;-82
2023/05/02 07:34:42;;;;;;;11.07;9.50;;;14.20;99.90;;;;;;7390043;19;20590;-82
2023/05/02 07:37:08;;;;;;;15.20;9.23;;;14.30;99.90;;;;;;7390269;19;20123;-84
2023/05/02 07:39:34;;;;;;;11.63;10.02;;;14.40;99.90;;;;;;7391315;19;20623;-82
2023/05/02 07:42:00;;;;;;;13.55;11.27;;;14.40;99.90;;;;;;7386127;19;20149;-82
2023/05/02 07:44:26;;;;;;;12.98;10.88;;;14.40;99.90;;;;;;7388212;19;20206;-84
2023/05/02 07:46:52;;;;;;;14.63;11.68;;;14.30;99.90;;;;;;7391918;19;20171;-83
2023/05/02 07:49:18;;;;;;;13.55;10.40;;;14.40;99.90;;;;;;7396458;19;20134;-82
2023/05/02 07:51:44;;;;;;;13.25;11.00;;;14.50;99.90;;;;;;7388691;19;20135;-82
2023/05/02 07:54:17;;;;;;;15.20;10.60;;;14.30;99.90;;;;;;7389616;19;20135;-83
2023/05/02 07:56:43;;;;;;;15.35;12.13;;;14.40;99.90;;;;;;7391703;19;20552;-82
2023/05/02 07:59:10;;;;;;;16.30;12.77;;;14.40;99.90;;;;;;7386266;19;20607;-81
2023/05/02 08:01:36;;;;;;;13.05;11.00;;;14.20;99.90;;;;;;7385686;19;20139;-81
2023/05/02 08:04:03;;;;;;;14.70;11.43;;;14.30;99.90;;;;;;7385010;19;20150;-81
2023/05/02 08:06:29;;;;;;;14.95;11.48;;;14.40;99.90;;;;;;7391784;19;20139;-80
2023/05/02 08:08:55;;;;;;;13.23;11.02;;;14.50;99.90;;;;;;7389641;19;20172;-80
2023/05/02 08:11:24;;;;;;;14.52;12.20;;;14.50;99.90;;;;;;7389172;19;20154;-80
2023/05/02 08:13:50;;;;;;;17.30;12.27;;;14.50;99.90;;;;;;7388667;19;20262;-81
2023/05/02 08:16:17;;;;;;;15.00;11.63;;;14.50;99.90;;;;;;7391503;19;20202;-81
2023/05/02 08:18:43;;;;;;;14.27;11.27;;;14.40;99.90;;;;;;7393382;19;20275;-81
2023/05/02 08:21:09;;;;;;;13.82;11.77;;;14.50;99.90;;;;;;7388542;19;21324;-81
2023/05/02 08:23:36;;;;;;;17.33;13.40;;;14.50;99.90;;;;;;7386562;19;20134;-82
2023/05/02 08:26:03;;;;;;;14.55;11.73;;;14.60;99.90;;;;;;7383975;19;20146;-81
2023/05/02 08:28:29;;;;;;;15.20;12.30;;;14.50;99.90;;;;;;7382535;19;20179;-82
2023/05/02 08:30:56;;;;;;;15.50;13.05;;;14.60;99.90;;;;;;7385816;19;20218;-83
2023/05/02 08:33:21;;;;;;;16.38;13.32;;;14.50;99.90;;;;;;7387240;19;20126;-82
2023/05/02 08:35:48;;;;;;;16.80;12.82;;;14.50;99.90;;;;;;7381821;19;20492;-85
2023/05/02 08:38:14;;;;;;;16.63;11.73;;;14.70;99.90;;;;;;7378838;19;20186;-84
2023/05/02 08:40:40;;;;;;;16.48;12.70;;;14.80;99.90;;;;;;7389218;19;20703;-85
2023/05/02 08:43:06;;;;;;;22.13;16.35;;;15.00;99.90;;;;;;7385674;19;20135;-84
2023/05/02 08:45:38;;;;;;;24.88;17.00;;;14.70;99.90;;;;;;7386047;19;20166;-83
2023/05/02 08:48:09;;;;;;;18.65;12.77;;;14.90;99.90;;;;;;7380629;19;20154;-83
2023/05/02 08:50:40;;;;;;;16.50;12.82;;;15.10;99.90;;;;;;7384290;19;20738;-84
2023/05/02 08:53:08;;;;;;;17.33;12.93;;;15.00;99.90;;;;;;7385073;19;20514;-83
2023/05/02 08:55:38;;;;;;;16.10;12.32;;;15.10;99.90;;;;;;7386503;19;20154;-84
2023/05/02 08:58:05;;;;;;;17.40;13.00;;;15.30;99.90;;;;;;7387507;19;20134;-82
2023/05/02 09:00:32;;;;;;;15.15;12.40;;;15.20;99.90;;;;;;7390121;19;20142;-83
2023/05/02 09:03:11;;;;;;;16.30;12.82;;;15.40;99.90;;;;;;7394158;19;20476;-84
2023/05/02 09:05:41;;;;;;;19.63;14.15;;;15.40;99.90;;;;;;7389863;19;20153;-83
2023/05/02 09:08:08;;;;;;;17.77;13.02;;;15.50;99.90;;;;;;7398056;19;20604;-83
2023/05/02 09:10:38;;;;;;;17.48;13.02;;;15.70;99.90;;;;;;7389211;19;20147;-83
2023/05/02 09:13:31;;;;;;;17.33;13.57;;;15.60;99.90;;;;;;7390712;19;20154;-83
2023/05/02 09:16:03;;;;;;;16.20;11.73;;;15.60;99.90;;;;;;7393102;19;20595;-85
2023/05/02 09:18:34;;;;;;;15.45;12.25;;;15.70;99.90;;;;;;7392069;19;20150;-83
2023/05/02 09:21:02;;;;;;;17.20;12.52;;;15.80;99.90;;;;;;7395471;19;20131;-81
2023/05/02 09:23:48;;;;;;;17.15;12.55;;;15.90;99.90;;;;;;7390903;19;20138;-83
2023/05/02 09:26:33;;;;;;;15.43;11.32;;;16.10;99.90;;;;;;7387327;19;20142;-85
2023/05/02 09:29:04;;;;;;;16.80;11.23;;;16.00;99.90;;;;;;7388007;19;20202;-85
2023/05/02 09:31:36;;;;;;;15.45;11.70;;;16.30;99.90;;;;;;7389396;19;20703;-84
2023/05/02 09:34:10;;;;;;;15.73;11.80;;;16.40;99.90;;;;;;7390655;19;20161;-83
2023/05/02 09:36:40;;;;;;;15.35;12.32;;;16.20;99.90;;;;;;7395893;19;21059;-85
2023/05/02 09:39:33;;;;;;;18.73;13.25;;;16.50;99.90;;;;;;7388130;19;20486;-85
2023/05/02 09:42:03;;;;;;;14.98;12.13;;;16.60;99.90;;;;;;7385961;19;20297;-85
2023/05/02 09:44:36;;;;;;;13.85;11.65;;;16.90;99.90;;;;;;7383027;19;20221;-85
2023/05/02 09:47:02;;;;;;;14.45;11.45;;;17.00;99.90;;;;;;7388252;19;20139;-85
2023/05/02 09:49:44;;;;;;;14.82;11.93;;;16.70;99.90;;;;;;7386666;19;20146;-83
2023/05/02 09:52:15;;;;;;;17.90;11.95;;;16.70;99.90;;;;;;7389389;19;20165;-85
2023/05/02 09:54:41;;;;;;;15.13;11.88;;;16.90;99.90;;;;;;7386329;19;20166;-84
2023/05/02 09:57:10;;;;;;;16.02;12.70;;;17.00;99.90;;;;;;7389851;19;20135;-83
2023/05/02 09:59:38;;;;;;;16.77;12.98;;;17.20;99.90;;;;;;7389046;19;20146;-82
2023/05/02 10:02:06;;;;;;;18.58;13.00;;;17.20;99.90;;;;;;7389377;19;20143;-88
2023/05/02 10:04:33;;;;;;;20.48;12.60;;;17.20;99.90;;;;;;7387608;19;20622;-84
2023/05/02 10:07:00;;;;;;;18.08;12.93;;;17.20;99.90;;;;;;7386474;19;20165;-84
2023/05/02 10:09:27;;;;;;;16.23;13.20;;;17.40;99.90;;;;;;7387387;19;20814;-85
2023/05/02 10:11:54;;;;;;;16.27;12.25;;;17.40;99.90;;;;;;7386338;19;20163;-84
2023/05/02 10:14:24;;;;;;;17.13;13.13;;;17.40;99.90;;;;;;7390147;19;20473;-83
2023/05/02 10:17:11;;;;;;;15.13;12.77;;;17.60;99.90;;;;;;7392000;19;20873;-83
2023/05/02 10:19:51;;;;;;;20.15;12.50;;;17.40;99.90;;;;;;7393051;19;20203;-84
2023/05/02 10:22:21;;;;;;;17.50;11.80;;;17.20;99.90;;;;;;7397578;19;20142;-82
2023/05/02 10:24:48;;;;;;;15.10;11.85;;;17.00;99.90;;;;;;7399932;19;20587;-85
2023/05/02 10:27:15;;;;;;;14.52;11.95;;;16.90;99.90;;;;;;7396388;19;20139;-85
2023/05/02 10:29:41;;;;;;;15.18;12.15;;;17.00;99.90;;;;;;7392941;19;20637;-85
2023/05/02 10:32:07;;;;;;;32.10;22.92;;;17.00;99.90;;;;;;7399855;19;20139;-86
2023/05/02 10:34:34;;;;;;;16.83;12.50;;;17.20;99.90;;;;;;7404977;19;20142;-85
2023/05/02 10:37:01;;;;;;;12.65;11.00;;;17.40;99.90;;;;;;7392303;19;20146;-85
2023/05/02 10:39:30;;;;;;;13.77;11.48;;;17.30;99.90;;;;;;7393571;19;20155;-85
2023/05/02 10:41:59;;;;;;;12.95;10.40;;;17.30;99.90;;;;;;7390946;19;20202;-83
2023/05/02 10:44:35;;;;;;;19.75;13.90;;;17.20;99.90;;;;;;7391319;19;20169;-86
2023/05/02 10:47:17;;;;;;;13.50;11.43;;;17.20;99.90;;;;;;7393819;19;20146;-86
2023/05/02 10:49:56;;;;;;;11.38;9.70;;;17.40;99.90;;;;;;7391215;19;20154;-82
2023/05/02 10:52:32;;;;;;;12.70;9.52;;;17.60;99.90;;;;;;7392135;19;20150;-80
2023/05/02 10:55:34;;;;;;;12.40;9.57;;;17.50;99.90;;;;;;7392361;19;20150;-83
2023/05/02 10:58:00;;;;;;;11.73;8.88;;;17.50;99.90;;;;;;7390864;19;20146;-83
2023/05/02 11:00:32;;;;;;;12.00;8.77;;;17.40;99.90;;;;;;7397145;19;20138;-83
2023/05/02 11:02:59;;;;;;;23.95;17.42;;;17.20;99.90;;;;;;7398580;19;20160;-81
2023/05/02 11:05:26;;;;;;;14.32;11.18;;;17.30;99.90;;;;;;7391723;19;20243;-81
2023/05/02 11:08:20;;;;;;;11.68;9.95;;;17.60;99.90;;;;;;7394964;19;20583;-83
2023/05/02 11:10:46;;;;;;;10.77;9.38;;;17.70;99.90;;;;;;7387703;19;20138;-82
2023/05/02 11:13:12;;;;;;;9.40;8.27;;;17.80;99.90;;;;;;7389111;19;20599;-81
2023/05/02 11:15:40;;;;;;;12.73;8.10;;;17.80;99.90;;;;;;7387005;19;20154;-82
2023/05/02 11:18:11;;;;;;;12.38;9.65;;;18.10;99.90;;;;;;7388103;19;20149;-83
2023/05/02 11:20:39;;;;;;;13.02;9.98;;;18.40;99.90;;;;;;7387288;19;20153;-83
2023/05/02 11:23:20;;;;;;;11.45;9.60;;;18.40;99.90;;;;;;7385264;19;20781;-84
2023/05/02 11:26:00;;;;;;;12.63;8.93;;;18.10;99.90;;;;;;7388232;19;20610;-80
2023/05/02 11:28:35;;;;;;;11.35;8.90;;;17.80;99.90;;;;;;7389698;19;20140;-82
2023/05/02 11:31:01;;;;;;;10.80;8.75;;;17.50;99.90;;;;;;7387874;19;20221;-82
2023/05/02 11:33:28;;;;;;;11.70;9.23;;;17.50;99.90;;;;;;7393503;19;20131;-81
2023/05/02 11:35:55;;;;;;;11.52;9.45;;;17.90;99.90;;;;;;7390733;19;20150;-81
2023/05/02 11:38:21;;;;;;;14.23;8.82;;;18.20;99.90;;;;;;7387274;19;20139;-81
2023/05/02 11:41:14;;;;;;;14.65;9.00;;;18.40;99.90;;;;;;7384955;19;20161;-82
2023/05/02 11:43:39;;;;;;;13.40;9.73;;;18.70;99.90;;;;;;7390816;19;20154;-82
2023/05/02 11:46:06;;;;;;;11.10;9.40;;;18.70;99.90;;;;;;7388745;19;20162;-82
2023/05/02 11:48:32;;;;;;;12.65;9.05;;;18.60;99.90;;;;;;7387694;19;20163;-83
2023/05/02 11:51:03;;;;;;;11.75;9.20;;;18.50;99.90;;;;;;7390667;19;20150;-84
2023/05/02 11:53:30;;;;;;;11.07;8.85;;;18.30;99.90;;;;;;7390596;19;20142;-83
2023/05/02 11:55:59;;;;;;;11.10;9.07;;;18.40;99.90;;;;;;7390205;19;20135;-83
2023/05/02 11:58:32;;;;;;;13.23;10.02;;;18.50;99.90;;;;;;7388520;19;20138;-82
2023/05/02 12:01:12;;;;;;;12.25;9.90;;;18.40;99.90;;;;;;7392437;19;20152;-82
2023/05/02 12:03:37;;;;;;;13.82;10.10;;;18.20;99.90;;;;;;7390448;19;20134;-83
2023/05/02 12:06:15;;;;;;;13.25;10.57;;;18.20;99.90;;;;;;7392874;19;20138;-82
2023/05/02 12:08:42;;;;;;;14.27;10.75;;;18.10;99.90;;;;;;7390158;19;20138;-83
2023/05/02 12:11:08;;;;;;;13.93;10.30;;;18.00;99.90;;;;;;7393325;19;20134;-83
2023/05/02 12:13:43;;;;;;;13.48;10.15;;;17.90;99.90;;;;;;7390324;19;20126;-82
2023/05/02 12:16:08;;;;;;;12.80;10.15;;;18.10;99.90;;;;;;7393358;19;20197;-83
2023/05/02 12:18:35;;;;;;;15.20;9.98;;;18.30;99.90;;;;;;7389319;19;20165;-84
2023/05/02 12:21:00;;;;;;;11.70;9.63;;;18.30;99.90;;;;;;7391524;19;20199;-83
2023/05/02 12:23:26;;;;;;;15.30;10.48;;;18.50;99.90;;;;;;7390913;19;20139;-84
2023/05/02 12:25:52;;;;;;;13.13;10.45;;;18.70;99.90;;;;;;7391360;19;20769;-84
2023/05/02 12:28:19;;;;;;;14.85;10.52;;;18.90;99.90;;;;;;7389979;19;20157;-85
2023/05/02 12:30:47;;;;;;;12.60;10.00;;;18.80;99.90;;;;;;7389974;19;20147;-82
2023/05/02 12:33:13;;;;;;;12.85;10.30;;;18.80;99.90;;;;;;7390298;19;20154;-84
2023/05/02 12:35:39;;;;;;;15.23;12.35;;;18.70;99.90;;;;;;7387895;19;20591;-84
2023/05/02 12:38:13;;;;;;;17.38;13.35;;;18.40;99.90;;;;;;7389767;19;20246;-85
2023/05/02 12:40:56;;;;;;;16.20;12.18;;;18.10;99.90;;;;;;7389919;19;20471;-83
2023/05/02 12:43:22;;;;;;;16.35;12.00;;;17.90;99.90;;;;;;7391283;19;20138;-84
2023/05/02 12:45:49;;;;;;;16.42;13.02;;;18.10;99.90;;;;;;7391168;19;20168;-83